Time;durP1;ratioP1;P1;durP2;ratioP2;P2;SDS_P1;SDS_P2;PMS_P1;PMS_P2;Temp;Humidity;BMP_temperature;BMP_pressure;BME280_temperature;BME280_humidity;BME280_pressure;Samples;Min_cycle;Max_cycle;Signal;HPM_P1;HPM_P2
2023/06/26 00:00:05;;;;;;;7.60;6.20;;;;;;;20.21;83.00;100710.55;106463;1259;71707;-71
2023/06/26 00:02:32;;;;;;;8.40;6.50;;;;;;;20.18;83.21;100710.63;107511;1257;71436;-71
2023/06/26 00:05:02;;;;;;;7.60;6.10;;;;;;;20.14;83.42;100710.45;108131;1261;61324;-71
2023/06/26 00:07:30;;;;;;;7.50;6.00;;;;;;;20.10;83.63;100708.33;106942;1256;61243;-68
2023/06/26 00:09:58;;;;;;;7.40;6.10;;;;;;;20.07;83.72;100707.20;106449;1256;74654;-69
2023/06/26 00:12:25;;;;;;;7.20;6.20;;;;;;;20.05;83.83;100704.14;106685;1259;70344;-71
2023/06/26 00:14:52;;;;;;;7.20;6.40;;;;;;;20.02;84.03;100703.47;106950;1256;72029;-69
2023/06/26 00:17:21;;;;;;;7.00;6.20;;;;;;;19.99;84.18;100702.33;106718;1257;62006;-70
2023/06/26 00:19:48;;;;;;;8.20;6.10;;;;;;;19.96;84.45;100699.04;106606;1256;61349;-70
2023/06/26 00:22:15;;;;;;;8.20;6.50;;;;;;;19.93;84.55;100700.39;108364;1256;74632;-70
2023/06/26 00:24:41;;;;;;;7.60;6.20;;;;;;;19.90;84.74;100696.70;106820;1258;68955;-70
2023/06/26 00:27:08;;;;;;;7.30;6.10;;;;;;;19.86;85.14;100692.89;106445;1256;72697;-70
2023/06/26 00:29:35;;;;;;;8.70;6.50;;;;;;;19.81;85.42;100695.02;106805;1256;62222;-71
2023/06/26 00:32:02;;;;;;;7.60;6.30;;;;;;;19.76;85.73;100693.13;106705;1256;61293;-70
2023/06/26 00:34:28;;;;;;;7.60;6.50;;;;;;;19.70;86.04;100692.39;106676;1256;73549;-71
2023/06/26 00:36:55;;;;;;;7.40;6.60;;;;;;;19.65;86.33;100694.67;106780;1256;72391;-70
2023/06/26 00:39:25;;;;;;;9.50;6.70;;;;;;;19.60;86.55;100692.62;107328;1256;72687;-71
2023/06/26 00:41:55;;;;;;;7.10;6.40;;;;;;;19.55;86.77;100694.25;107082;1256;726050;-70
2023/06/26 00:44:22;;;;;;;7.20;6.40;;;;;;;19.51;86.63;100693.46;106921;1257;61271;-69
2023/06/26 00:46:49;;;;;;;7.70;6.30;;;;;;;19.48;86.95;100690.75;106773;1257;75973;-69
2023/06/26 00:49:15;;;;;;;7.60;6.40;;;;;;;19.46;87.08;100686.67;106529;1257;70308;-68
2023/06/26 00:51:43;;;;;;;8.10;6.50;;;;;;;19.44;87.26;100682.95;106687;1256;72023;-69
2023/06/26 00:54:10;;;;;;;10.10;6.70;;;;;;;19.41;87.53;100683.63;107145;1256;61275;-69
2023/06/26 00:56:37;;;;;;;8.10;6.30;;;;;;;19.38;87.51;100680.17;106576;1257;61648;-68
2023/06/26 00:59:04;;;;;;;7.60;6.40;;;;;;;19.34;87.53;100677.34;107595;1256;73443;-69
2023/06/26 01:01:31;;;;;;;7.20;6.20;;;;;;;19.30;87.57;100675.42;107724;1261;70607;-70
2023/06/26 01:03:58;;;;;;;7.60;6.50;;;;;;;19.27;87.63;100672.94;106824;1259;72910;-68
2023/06/26 01:06:29;;;;;;;10.60;6.40;;;;;;;19.24;87.65;100668.98;106672;1257;61275;-70
2023/06/26 01:08:56;;;;;;;8.50;6.10;;;;;;;19.20;87.74;100666.52;106962;1256;61267;-69
2023/06/26 01:11:23;;;;;;;7.20;6.10;;;;;;;19.16;87.68;100668.70;106625;1256;74757;-69
2023/06/26 01:13:51;;;;;;;8.00;6.90;;;;;;;19.13;87.62;100662.55;106632;1257;70225;-69
2023/06/26 01:16:19;;;;;;;9.10;6.40;;;;;;;19.10;87.62;100664.90;107405;1256;71783;-70
2023/06/26 01:18:48;;;;;;;9.30;6.10;;;;;;;19.07;87.71;100664.83;107546;1258;61929;-71
2023/06/26 01:21:17;;;;;;;8.80;6.20;;;;;;;19.04;87.73;100663.94;107161;1256;61651;-69
2023/06/26 01:24:09;;;;;;;9.40;6.10;;;;;;;19.02;87.71;100664.42;106431;1256;74462;-69
2023/06/26 01:26:36;;;;;;;7.90;6.50;;;;;;;18.98;87.67;100662.23;106732;1256;71196;-69
2023/06/26 01:29:06;;;;;;;9.30;6.00;;;;;;;18.95;87.68;100654.16;106489;1260;71219;-69
2023/06/26 01:31:34;;;;;;;9.60;6.50;;;;;;;18.93;87.84;100652.80;107066;1256;62059;-69
2023/06/26 01:34:02;;;;;;;6.90;5.90;;;;;;;18.91;87.90;100649.91;107513;1259;61248;-70
2023/06/26 01:36:29;;;;;;;8.70;6.00;;;;;;;18.90;87.89;100647.96;106641;1257;73542;-71
2023/06/26 01:38:56;;;;;;;7.70;5.90;;;;;;;18.88;87.67;100648.19;107763;1256;71692;-70
2023/06/26 01:41:23;;;;;;;8.20;5.70;;;;;;;18.88;87.62;100644.30;107363;1256;71418;-70
2023/06/26 01:44:25;;;;;;;7.90;5.30;;;;;;;18.88;87.27;100644.42;106691;1262;61279;-72
2023/06/26 01:47:03;;;;;;;6.10;5.30;;;;;;;18.90;87.04;100636.79;106413;1261;61164;-71
2023/06/26 01:50:05;;;;;;;6.20;5.40;;;;;;;18.92;86.65;100635.63;106851;1256;74743;-68
2023/06/26 01:52:34;;;;;;;7.10;5.20;;;;;;;18.95;86.41;100636.02;107482;1257;69937;-70
2023/06/26 01:55:29;;;;;;;8.70;5.60;;;;;;;18.97;86.08;100630.33;106701;1259;71927;-70
2023/06/26 01:57:58;;;;;;;8.00;5.30;;;;;;;19.01;85.79;100628.91;107027;1261;61098;-69
2023/06/26 02:00:26;;;;;;;6.60;5.10;;;;;;;19.02;85.46;100621.33;107528;1257;61244;-71
2023/06/26 02:02:53;;;;;;;7.50;5.40;;;;;;;19.03;85.11;100623.11;106768;1261;74675;-70
2023/06/26 02:05:20;;;;;;;6.40;5.30;;;;;;;19.04;85.04;100620.24;106554;1257;70380;-70
2023/06/26 02:07:47;;;;;;;7.80;5.10;;;;;;;19.05;84.90;100618.20;106957;1256;72739;-70
2023/06/26 02:10:13;;;;;;;6.60;5.00;;;;;;;19.05;84.68;100615.47;106963;1256;61414;-69
2023/06/26 02:12:41;;;;;;;7.60;5.10;;;;;;;19.06;84.30;100612.70;106759;1256;61904;-70
2023/06/26 02:15:08;;;;;;;9.80;5.30;;;;;;;19.05;84.15;100605.42;107256;1256;73128;-70
2023/06/26 02:17:35;;;;;;;7.40;5.00;;;;;;;19.05;84.01;100599.44;107052;1257;69989;-70
2023/06/26 02:20:03;;;;;;;9.00;5.80;;;;;;;19.02;84.26;100597.39;107555;1256;71463;-70
2023/06/26 02:22:30;;;;;;;6.90;5.70;;;;;;;18.97;84.65;100600.86;107375;1258;63308;-72
2023/06/26 02:24:57;;;;;;;9.20;5.80;;;;;;;18.91;85.08;100605.54;108016;1256;60794;-73
2023/06/26 02:27:24;;;;;;;10.00;6.10;;;;;;;18.88;85.40;100605.27;108021;1257;74829;-72
2023/06/26 02:29:51;;;;;;;8.60;6.20;;;;;;;18.83;85.80;100606.75;107894;1257;71215;-72
2023/06/26 02:32:18;;;;;;;9.50;6.10;;;;;;;18.78;85.91;100606.23;107976;1261;73536;-72
2023/06/26 02:34:44;;;;;;;7.40;6.20;;;;;;;18.73;86.25;100602.48;107897;1257;62116;-72
2023/06/26 02:37:12;;;;;;;10.00;6.20;;;;;;;18.70;86.54;100596.17;107900;1264;59451;-72
2023/06/26 02:39:38;;;;;;;7.10;5.50;;;;;;;18.68;86.68;100597.95;108057;1256;73894;-72
2023/06/26 02:42:06;;;;;;;8.10;6.10;;;;;;;18.65;86.87;100597.61;108050;1261;72965;-72
2023/06/26 02:44:33;;;;;;;8.00;5.80;;;;;;;18.64;87.06;100591.92;107975;1259;72008;-72
2023/06/26 02:46:59;;;;;;;10.30;6.00;;;;;;;18.61;87.17;100590.73;107997;1261;61367;-70
2023/06/26 02:49:27;;;;;;;10.20;6.20;;;;;;;18.60;87.25;100594.19;107914;1256;59425;-71
2023/06/26 02:51:54;;;;;;;10.30;6.30;;;;;;;18.57;87.35;100587.23;107927;1256;75164;-71
2023/06/26 02:54:21;;;;;;;9.90;6.00;;;;;;;18.55;87.47;100584.50;108126;1256;69312;-70
2023/06/26 02:56:48;;;;;;;8.20;6.20;;;;;;;18.52;87.42;100579.87;107867;1260;72969;-71
2023/06/26 02:59:15;;;;;;;7.40;5.90;;;;;;;18.51;87.63;100575.02;108027;1256;62137;-72
2023/06/26 03:01:42;;;;;;;9.70;6.10;;;;;;;18.51;87.58;100576.02;108015;1257;59159;-71
2023/06/26 03:04:10;;;;;;;9.20;5.80;;;;;;;18.50;87.55;100568.76;107822;1256;73463;-71
2023/06/26 03:06:36;;;;;;;7.80;5.80;;;;;;;18.49;87.49;100565.30;106266;1257;70114;-71
2023/06/26 03:09:03;;;;;;;8.40;7.30;;;;;;;18.50;87.31;100563.80;106322;1261;71499;-69
2023/06/26 03:11:30;;;;;;;7.80;5.60;;;;;;;18.50;87.23;100563.47;107464;1256;61247;-70
2023/06/26 03:13:57;;;;;;;7.40;5.80;;;;;;;18.48;87.09;100564.79;106618;1257;61756;-69
2023/06/26 03:16:24;;;;;;;11.40;6.10;;;;;;;18.48;86.98;100561.13;106978;1257;75105;-69
2023/06/26 03:18:51;;;;;;;9.00;5.40;;;;;;;18.46;86.94;100560.54;106684;1259;71425;-70
2023/06/26 03:21:18;;;;;;;7.60;5.70;;;;;;;18.46;86.86;100560.77;107074;1257;72890;-69
2023/06/26 03:23:45;;;;;;;7.10;5.50;;;;;;;18.46;86.75;100558.81;106399;1257;61437;-69
2023/06/26 03:26:14;;;;;;;7.80;5.40;;;;;;;18.47;86.64;100560.50;106081;1256;61170;-69
2023/06/26 03:28:42;;;;;;;6.90;5.40;;;;;;;18.48;86.57;100556.27;106579;1257;75075;-70
2023/06/26 03:31:08;;;;;;;8.80;5.10;;;;;;;18.47;86.43;100557.89;107187;1257;70054;-69
2023/06/26 03:33:36;;;;;;;8.20;5.20;;;;;;;18.48;86.42;100557.06;106856;1257;72705;-69
2023/06/26 03:36:04;;;;;;;7.90;5.30;;;;;;;18.49;86.23;100553.10;106645;1257;62117;-69
2023/06/26 03:38:30;;;;;;;9.00;5.60;;;;;;;18.51;86.29;100555.18;106939;1257;61666;-70
2023/06/26 03:40:57;;;;;;;8.10;5.80;;;;;;;18.52;86.30;100554.61;107085;1262;74277;-69
2023/06/26 03:43:24;;;;;;;9.20;5.70;;;;;;;18.53;86.31;100551.95;106388;1260;70901;-69
2023/06/26 03:45:51;;;;;;;9.30;5.60;;;;;;;18.53;86.34;100548.24;106376;1257;72783;-69
2023/06/26 03:48:18;;;;;;;9.80;5.50;;;;;;;18.54;86.32;100545.84;107463;1256;61363;-70
2023/06/26 03:50:45;;;;;;;10.30;5.40;;;;;;;18.55;86.37;100546.39;107078;1260;61611;-70
2023/06/26 03:53:12;;;;;;;7.70;5.60;;;;;;;18.57;86.26;100547.58;106916;1257;73461;-70
2023/06/26 03:55:39;;;;;;;8.90;5.10;;;;;;;18.59;86.21;100544.42;106328;1256;70014;-70
2023/06/26 03:58:06;;;;;;;7.20;5.20;;;;;;;18.62;86.22;100543.64;106778;1256;72831;-70
2023/06/26 04:00:32;;;;;;;8.10;5.20;;;;;;;18.67;86.27;100545.52;106727;1262;62495;-71
2023/06/26 04:02:59;;;;;;;8.80;5.50;;;;;;;18.71;86.13;100548.58;106106;1257;61318;-69
2023/06/26 04:05:26;;;;;;;9.60;5.30;;;;;;;18.77;86.03;100547.79;107223;1257;73508;-69
2023/06/26 04:07:54;;;;;;;8.00;5.60;;;;;;;18.83;85.81;100542.33;106877;1261;71206;-71
2023/06/26 04:10:21;;;;;;;5.90;4.60;;;;;;;18.90;85.65;100542.70;107022;1258;71541;-69
2023/06/26 04:12:48;;;;;;;7.30;5.10;;;;;;;18.98;85.32;100543.15;106321;1256;61380;-70
2023/06/26 04:15:15;;;;;;;6.20;4.80;;;;;;;19.06;85.24;100545.27;106298;1259;61262;-69
2023/06/26 04:17:42;;;;;;;9.70;5.10;;;;;;;19.15;85.09;100541.96;106870;1257;73441;-69
2023/06/26 04:20:09;;;;;;;8.10;4.60;;;;;;;19.24;84.87;100544.19;106585;1257;70085;-68
2023/06/26 04:22:36;;;;;;;10.30;4.90;;;;;;;19.31;84.56;100538.72;106639;1256;71661;-69
2023/06/26 04:25:03;;;;;;;8.20;4.80;;;;;;;19.39;84.43;100538.11;106792;1257;62422;-69
2023/06/26 04:27:30;;;;;;;7.50;5.30;;;;;;;19.47;84.20;100537.95;106794;1260;61139;-68
2023/06/26 04:30:01;;;;;;;7.50;4.60;;;;;;;19.55;84.08;100537.16;107319;1257;74950;-68
2023/06/26 04:32:28;;;;;;;6.90;4.50;;;;;;;19.63;83.84;100531.83;106313;1257;70072;-69
2023/06/26 04:34:55;;;;;;;7.90;4.70;;;;;;;19.73;83.59;100525.20;107884;1253;71135;-80
2023/06/26 04:37:30;;;;;;;8.80;4.60;;;;;;;19.78;83.31;100518.30;108206;1253;64718;31
2023/06/26 04:40:09;;;;;;;9.50;4.50;;;;;;;19.93;83.08;100517.63;106173;1259;61453;-49
2023/06/26 04:42:36;;;;;;;6.20;4.50;;;;;;;20.06;82.77;100518.01;106622;1259;74444;-53
2023/06/26 04:45:03;;;;;;;8.90;4.40;;;;;;;20.16;82.18;100518.89;106719;1259;61254;-52
2023/06/26 04:47:29;;;;;;;7.80;4.30;;;;;;;20.27;81.80;100514.08;107018;1264;72255;-52
2023/06/26 04:49:56;;;;;;;6.10;4.40;;;;;;;20.39;81.29;100506.52;107273;1264;61369;-49
2023/06/26 04:52:23;;;;;;;6.10;4.40;;;;;;;20.49;80.58;100508.63;106255;1258;61359;-52
2023/06/26 04:54:49;;;;;;;5.60;4.40;;;;;;;20.59;80.27;100506.52;106339;1259;75784;-51
2023/06/26 04:57:17;;;;;;;6.00;4.30;;;;;;;20.71;80.12;100506.29;106337;1262;61353;-53
2023/06/26 04:59:44;;;;;;;5.40;4.30;;;;;;;20.81;79.87;100501.30;107532;1259;71278;-48
2023/06/26 05:02:12;;;;;;;5.70;4.10;;;;;;;20.90;79.62;100499.65;106775;1263;61690;-52
2023/06/26 05:04:42;;;;;;;7.00;4.30;;;;;;;20.97;79.20;100503.70;106512;1259;61295;-50
2023/06/26 05:07:08;;;;;;;6.10;4.00;;;;;;;21.02;78.94;100499.83;107239;1259;74708;-51
2023/06/26 05:09:35;;;;;;;5.80;3.80;;;;;;;21.09;78.75;100497.11;106954;1259;70908;-51
2023/06/26 05:12:02;;;;;;;6.30;4.20;;;;;;;21.16;78.57;100494.98;106690;1261;70573;-49
2023/06/26 05:14:30;;;;;;;5.80;4.00;;;;;;;21.23;78.28;100492.39;106555;1259;62003;-52
2023/06/26 05:16:57;;;;;;;5.40;4.00;;;;;;;21.30;77.48;100488.42;108281;1260;60366;-52
2023/06/26 05:19:24;;;;;;;6.60;3.60;;;;;;;21.39;77.11;100488.42;106997;1259;59461;-53
2023/06/26 05:21:51;;;;;;;5.50;3.90;;;;;;;21.48;76.67;100487.15;106305;1259;70161;-54
2023/06/26 05:24:19;;;;;;;6.80;4.10;;;;;;;21.57;76.39;100483.96;106635;1259;70582;-50
2023/06/26 05:26:50;;;;;;;7.50;4.30;;;;;;;21.66;76.17;100479.47;107553;1259;60751;-54
2023/06/26 05:29:16;;;;;;;5.50;3.80;;;;;;;21.75;76.35;100479.06;106453;1260;61226;-54
2023/06/26 05:31:45;;;;;;;6.00;4.20;;;;;;;21.87;76.62;100477.35;106174;1261;73198;-52
2023/06/26 05:34:13;;;;;;;8.90;4.40;;;;;;;21.99;76.80;100478.38;106927;1259;71043;-51
2023/06/26 05:36:42;;;;;;;5.20;4.10;;;;;;;22.10;76.53;100478.20;106371;1259;71706;-49
2023/06/26 05:39:09;;;;;;;6.30;4.50;;;;;;;22.18;76.26;100472.08;106503;1257;61583;-52
2023/06/26 05:41:37;;;;;;;7.50;4.30;;;;;;;22.28;75.32;100463.59;106528;1257;61223;-49
2023/06/26 05:44:04;;;;;;;8.00;4.70;;;;;;;22.40;75.13;100462.70;107674;1257;74366;-51
2023/06/26 05:46:32;;;;;;;4.70;3.60;;;;;;;22.53;74.45;100462.14;106637;1259;71471;-50
2023/06/26 05:48:58;;;;;;;9.30;4.60;;;;;;;22.66;73.80;100457.52;106397;1259;71618;-52
2023/06/26 05:51:25;;;;;;;5.50;4.30;;;;;;;22.79;73.55;100458.73;107120;1260;61272;-52
2023/06/26 05:53:53;;;;;;;6.00;3.70;;;;;;;22.94;73.18;100456.09;106609;1258;61122;-51
2023/06/26 05:56:28;;;;;;;4.80;3.80;;;;;;;23.09;72.30;100456.21;106198;1260;73439;-50
2023/06/26 05:58:58;;;;;;;7.10;3.90;;;;;;;23.22;71.29;100459.88;105886;1261;69735;-49
2023/06/26 06:01:30;;;;;;;5.30;3.90;;;;;;;23.36;70.91;100458.20;106768;1261;72946;-51
2023/06/26 06:03:57;;;;;;;4.60;3.80;;;;;;;23.53;70.63;100462.03;106263;1258;60923;-59
2023/06/26 06:06:33;;;;;;;5.40;4.00;;;;;;;23.71;69.73;100462.58;105931;1257;61324;-50
2023/06/26 06:09:03;;;;;;;4.70;3.90;;;;;;;23.85;69.03;100462.79;106805;1257;74659;-50
2023/06/26 06:11:42;;;;;;;5.70;3.70;;;;;;;24.01;68.22;100459.48;106071;1257;69749;-48
2023/06/26 06:14:17;;;;;;;4.60;3.80;;;;;;;24.20;67.95;100456.23;105946;1260;70437;-50
2023/06/26 06:16:44;;;;;;;5.40;4.00;;;;;;;24.37;66.95;100454.55;106317;1261;61555;-50
2023/06/26 06:19:13;;;;;;;6.20;4.00;;;;;;;24.55;65.60;100455.30;107521;1259;61343;-50
2023/06/26 06:21:39;;;;;;;6.40;3.70;;;;;;;24.74;65.31;100457.81;106794;1260;74372;-47
2023/06/26 06:24:06;;;;;;;5.50;3.80;;;;;;;24.93;64.28;100454.66;106462;1259;70973;-50
2023/06/26 06:26:33;;;;;;;4.50;3.80;;;;;;;25.08;63.13;100458.25;106529;1257;71512;-51
2023/06/26 06:28:59;;;;;;;6.70;3.60;;;;;;;25.18;61.85;100461.14;107494;1257;61285;-49
2023/06/26 06:31:28;;;;;;;5.50;4.20;;;;;;;25.27;61.13;100458.04;106340;1257;62429;-50
2023/06/26 06:33:55;;;;;;;5.60;3.90;;;;;;;25.35;60.94;100456.30;106478;1258;73500;-53
2023/06/26 06:36:25;;;;;;;7.50;3.70;;;;;;;25.38;59.94;100455.69;106788;1257;70157;-49
2023/06/26 06:38:54;;;;;;;6.00;3.90;;;;;;;25.40;58.64;100452.58;107287;1260;72733;-52
2023/06/26 06:41:20;;;;;;;5.50;3.70;;;;;;;25.39;57.91;100454.00;106257;1262;61330;-50
2023/06/26 06:43:50;;;;;;;5.40;3.40;;;;;;;25.43;58.44;100447.90;106482;1259;61283;-49
2023/06/26 06:46:22;;;;;;;5.10;3.70;;;;;;;25.47;57.52;100453.41;106687;1261;73396;-52
2023/06/26 06:48:56;;;;;;;5.10;3.50;;;;;;;25.45;57.48;100452.98;105845;1262;69841;-50
2023/06/26 06:51:23;;;;;;;5.30;3.60;;;;;;;25.44;57.25;100446.60;106047;1259;178710;-76
2023/06/26 06:53:50;;;;;;;6.20;4.40;;;;;;;25.45;57.52;100448.80;106648;1257;61222;-76
2023/06/26 06:56:17;;;;;;;4.70;4.10;;;;;;;25.56;57.67;100443.80;106685;1256;61169;-75
2023/06/26 06:58:46;;;;;;;5.50;4.00;;;;;;;25.69;56.93;100453.28;108845;1256;74935;-75
2023/06/26 07:01:15;;;;;;;7.30;4.00;;;;;;;25.82;57.06;100448.85;107555;1257;70312;-74
2023/06/26 07:03:41;;;;;;;6.40;3.80;;;;;;;25.93;56.11;100445.38;107422;1258;73087;-76
2023/06/26 07:06:08;;;;;;;5.30;4.00;;;;;;;26.03;55.30;100445.67;108516;1258;59937;-76
2023/06/26 07:08:35;;;;;;;5.40;3.50;;;;;;;26.07;55.03;100455.22;107769;1257;61195;-78
2023/06/26 07:11:02;;;;;;;6.00;3.80;;;;;;;26.08;54.61;100454.50;107027;1256;73360;-75
2023/06/26 07:13:29;;;;;;;5.40;3.60;;;;;;;26.10;55.16;100450.67;106977;1257;71567;-80
2023/06/26 07:15:56;;;;;;;4.90;3.70;;;;;;;26.13;55.52;100450.37;107251;1256;72743;-78
2023/06/26 07:18:23;;;;;;;3.90;3.40;;;;;;;26.19;55.37;100454.77;107095;1256;61248;-74
2023/06/26 07:20:51;;;;;;;5.10;3.70;;;;;;;26.26;55.23;100457.77;107133;1257;61326;-75
2023/06/26 07:23:18;;;;;;;5.20;3.60;;;;;;;26.30;54.80;100459.74;107724;1256;74692;-76
2023/06/26 07:25:45;;;;;;;5.20;4.00;;;;;;;26.32;54.22;100455.86;107102;1256;71286;-76
2023/06/26 07:28:14;;;;;;;7.00;3.70;;;;;;;26.31;53.93;100455.33;106769;1256;72415;-81
2023/06/26 07:30:41;;;;;;;5.60;3.80;;;;;;;26.30;53.80;100453.70;106835;1256;61200;-73
2023/06/26 07:33:08;;;;;;;5.50;3.70;;;;;;;26.30;53.93;100448.21;106852;1256;61282;-74
2023/06/26 07:35:34;;;;;;;5.00;3.90;;;;;;;26.35;54.23;100445.34;107278;1257;74726;-77
2023/06/26 07:38:01;;;;;;;5.10;3.70;;;;;;;26.42;53.66;100447.50;107162;1257;71266;-77
2023/06/26 07:40:28;;;;;;;5.60;4.00;;;;;;;26.48;54.18;100441.95;107918;1256;73811;-76
2023/06/26 07:42:54;;;;;;;5.90;3.80;;;;;;;26.56;54.52;100445.52;107398;1260;61119;-75
2023/06/26 07:45:21;;;;;;;6.70;3.70;;;;;;;26.66;55.07;100448.38;106728;1256;61298;-76
2023/06/26 07:47:50;;;;;;;4.70;3.90;;;;;;;26.75;53.52;100446.04;106941;1257;74625;-78
2023/06/26 07:50:21;;;;;;;5.90;4.30;;;;;;;26.79;52.72;100448.81;106925;1256;61232;-78
2023/06/26 07:52:48;;;;;;;5.80;3.80;;;;;;;26.86;52.40;100448.09;106616;1257;72728;-80
2023/06/26 07:55:15;;;;;;;5.60;4.20;;;;;;;26.93;52.96;100449.37;107855;1260;61648;-78
2023/06/26 07:57:42;;;;;;;5.00;3.80;;;;;;;27.01;52.94;100447.70;107669;1257;61183;-76
2023/06/26 08:00:10;;;;;;;5.00;3.80;;;;;;;27.11;53.25;100447.90;107526;1256;73592;-78
2023/06/26 08:02:37;;;;;;;4.80;3.90;;;;;;;27.24;52.83;100446.39;106757;1259;70246;-77
2023/06/26 08:05:04;;;;;;;6.30;4.10;;;;;;;27.36;51.65;100447.42;106617;1260;73888;-79
2023/06/26 08:07:30;;;;;;;5.10;3.90;;;;;;;27.44;50.46;100460.89;106683;1257;61188;-78
2023/06/26 08:09:57;;;;;;;5.20;4.00;;;;;;;27.42;48.89;100456.83;106987;1257;61145;-76
2023/06/26 08:12:24;;;;;;;6.00;4.20;;;;;;;27.35;49.27;100451.76;107529;1256;74745;-77
2023/06/26 08:14:51;;;;;;;4.80;4.10;;;;;;;27.40;49.68;100453.48;106997;1257;69963;-74
2023/06/26 08:17:17;;;;;;;6.60;4.20;;;;;;;27.49;49.78;100450.96;107561;1256;61168;-75
2023/06/26 08:19:44;;;;;;;5.10;4.20;;;;;;;27.60;49.19;100450.52;108061;1256;60436;-77
2023/06/26 08:22:11;;;;;;;5.70;3.90;;;;;;;27.70;49.18;100452.62;106980;1257;60811;-74
2023/06/26 08:24:38;;;;;;;6.10;3.90;;;;;;;27.73;47.53;100459.02;106852;1256;76162;-79
2023/06/26 08:27:07;;;;;;;5.80;4.50;;;;;;;27.72;47.71;100456.67;106945;1261;69930;-75
2023/06/26 08:29:34;;;;;;;7.90;4.40;;;;;;;27.72;48.35;100456.95;107520;1256;72969;-80
2023/06/26 08:32:02;;;;;;;6.20;4.30;;;;;;;27.72;48.74;100446.86;106966;1260;61729;-74
2023/06/26 08:34:29;;;;;;;4.60;3.80;;;;;;;27.77;49.28;100450.01;107031;1256;61107;-76
2023/06/26 08:36:55;;;;;;;5.40;4.30;;;;;;;27.79;48.87;100451.17;107612;1260;73885;-75
2023/06/26 08:39:23;;;;;;;6.40;4.50;;;;;;;27.86;48.60;100444.76;106609;1256;71205;-74
2023/06/26 08:41:49;;;;;;;6.40;4.40;;;;;;;27.92;48.91;100436.83;107018;1257;71414;-78
2023/06/26 08:44:16;;;;;;;5.70;4.20;;;;;;;27.96;48.93;100434.95;106731;1262;61263;-78
2023/06/26 08:46:43;;;;;;;5.80;4.40;;;;;;;28.05;49.40;100432.09;106732;1255;61369;-78
2023/06/26 08:49:32;;;;;;;5.20;4.50;;;;;;;28.19;48.56;100428.95;107525;1257;74461;-75
2023/06/26 08:52:05;;;;;;;6.10;4.50;;;;;;;28.31;49.05;100429.23;106968;1260;71262;-78
2023/06/26 08:54:36;;;;;;;8.60;4.30;;;;;;;28.44;48.95;100433.14;107727;1256;73180;-74
2023/06/26 08:57:05;;;;;;;5.00;4.00;;;;;;;28.48;48.52;100432.42;106827;1256;60564;-77
2023/06/26 08:59:32;;;;;;;5.70;4.20;;;;;;;28.45;47.40;100444.14;107105;1257;59752;-77
2023/06/26 09:01:59;;;;;;;5.30;4.20;;;;;;;28.46;48.00;100457.00;107145;1256;75142;-78
2023/06/26 09:04:26;;;;;;;5.40;4.60;;;;;;;28.49;48.00;100461.56;107116;1257;70389;-74
2023/06/26 09:06:53;;;;;;;6.30;4.60;;;;;;;28.56;48.32;100471.11;107055;1256;71552;-74
2023/06/26 09:09:20;;;;;;;6.10;4.50;;;;;;;28.66;48.32;100472.55;107616;1262;61323;-78
2023/06/26 09:11:47;;;;;;;5.50;4.30;;;;;;;28.71;47.75;100476.40;107494;1259;61644;-78
2023/06/26 09:14:14;;;;;;;6.00;4.10;;;;;;;28.69;47.51;100480.30;107787;1256;73486;-77
2023/06/26 09:16:44;;;;;;;6.60;4.30;;;;;;;28.63;47.80;100479.75;107318;1257;71168;-76
2023/06/26 09:19:12;;;;;;;6.30;4.50;;;;;;;28.62;48.37;100476.01;106767;1257;72730;-76
2023/06/26 09:21:43;;;;;;;5.50;4.10;;;;;;;28.69;49.07;100469.23;106853;1256;59346;-76
2023/06/26 09:24:10;;;;;;;5.10;4.50;;;;;;;28.76;48.26;100473.51;106923;1258;60344;-78
2023/06/26 09:26:38;;;;;;;8.90;5.00;;;;;;;28.74;47.79;100475.35;107142;1256;73397;-77
2023/06/26 09:29:06;;;;;;;7.20;4.80;;;;;;;28.79;48.87;100467.06;107893;1256;71446;-79
2023/06/26 09:31:42;;;;;;;6.00;4.70;;;;;;;28.92;49.36;100464.91;107749;1259;72297;-75
2023/06/26 09:34:10;;;;;;;8.10;4.80;;;;;;;28.93;48.46;100476.61;107095;1258;61213;-74
2023/06/26 09:36:37;;;;;;;7.20;5.10;;;;;;;28.81;48.71;100490.82;107158;1260;61233;-74
2023/06/26 09:39:10;;;;;;;6.70;5.20;;;;;;;28.78;49.27;100483.89;106852;1262;74688;-78
2023/06/26 09:41:38;;;;;;;7.30;4.80;;;;;;;28.80;48.59;100489.85;106940;1257;71041;-76
2023/06/26 09:44:05;;;;;;;8.40;4.60;;;;;;;28.66;47.58;100509.51;106988;1256;59835;-73
2023/06/26 09:46:33;;;;;;;9.60;5.10;;;;;;;28.46;47.16;100521.46;107455;1257;61284;-75
2023/06/26 09:49:08;;;;;;;12.30;5.00;;;;;;;28.36;47.84;100514.53;107665;1260;61211;-75
2023/06/26 09:51:36;;;;;;;7.50;5.10;;;;;;;28.32;48.08;100530.84;107431;1262;73601;-78
2023/06/26 09:54:04;;;;;;;10.30;4.90;;;;;;;28.28;48.07;100511.44;106810;1260;71052;-73
2023/06/26 09:56:32;;;;;;;7.00;5.30;;;;;;;28.31;48.43;100521.71;107721;1256;71186;-76
2023/06/26 09:59:01;;;;;;;8.20;4.90;;;;;;;28.26;49.49;100522.33;107401;1257;61627;-73
2023/06/26 10:01:29;;;;;;;6.50;5.30;;;;;;;28.02;49.90;100547.30;107889;1257;61133;-79
2023/06/26 10:03:59;;;;;;;9.00;5.40;;;;;;;27.77;50.51;100531.27;108657;1257;74581;-73
2023/06/26 10:06:38;;;;;;;8.10;5.70;;;;;;;27.57;51.57;100534.70;107880;1258;69730;-74
2023/06/26 10:09:06;;;;;;;7.80;6.20;;;;;;;27.25;52.15;100530.75;107733;1257;71744;-75
2023/06/26 10:11:58;;;;;;;6.30;4.90;;;;;;;27.01;52.96;100539.39;107638;1261;61020;-76
2023/06/26 10:14:35;;;;;;;9.00;5.50;;;;;;;26.77;53.96;100534.52;107319;1256;61276;-76
2023/06/26 10:17:06;;;;;;;7.90;5.50;;;;;;;26.62;54.65;100544.06;107167;1258;73523;-79
2023/06/26 10:19:35;;;;;;;8.30;5.10;;;;;;;26.50;54.82;100541.59;106906;1259;69994;-77
2023/06/26 10:22:03;;;;;;;7.40;5.10;;;;;;;26.46;55.53;100542.77;107269;1257;71406;-75
2023/06/26 10:24:37;;;;;;;7.80;5.20;;;;;;;26.49;55.95;100542.96;107486;1260;60540;-75
2023/06/26 10:27:27;;;;;;;7.40;5.80;;;;;;;26.59;56.48;100546.64;107600;1257;61249;-76
2023/06/26 10:29:56;;;;;;;7.50;5.50;;;;;;;26.79;57.06;100556.86;107475;1257;73755;-73
2023/06/26 10:32:25;;;;;;;9.50;6.30;;;;;;;26.80;57.24;100573.23;106914;1260;70190;-74
2023/06/26 10:34:53;;;;;;;8.90;6.70;;;;;;;26.63;58.20;100572.13;106848;1257;71421;-73
2023/06/26 10:37:19;;;;;;;8.80;6.00;;;;;;;26.47;58.98;100580.39;106923;1257;62565;-73
2023/06/26 10:39:50;;;;;;;9.90;6.20;;;;;;;26.17;59.83;100587.85;107120;1262;61130;-76
2023/06/26 10:42:19;;;;;;;10.50;6.30;;;;;;;25.80;60.41;100587.66;107349;1257;74625;-75
2023/06/26 10:44:47;;;;;;;12.60;5.60;;;;;;;25.50;61.08;100590.61;108203;1260;71463;-75
2023/06/26 10:47:31;;;;;;;10.30;5.30;;;;;;;25.15;61.87;100626.48;106930;1262;72392;-73
2023/06/26 10:50:21;;;;;;;9.60;5.30;;;;;;;24.62;65.09;100639.06;107348;1258;61257;-73
2023/06/26 10:53:13;;;;;;;6.90;4.60;;;;;;;23.46;74.40;100641.38;106491;1256;61751;-74
2023/06/26 10:55:50;;;;;;;8.00;5.10;;;;;;;22.46;77.69;100645.84;106218;1260;74754;-74
2023/06/26 10:58:30;;;;;;;9.80;7.00;;;;;;;22.08;79.51;100647.95;106260;1257;70978;-76
2023/06/26 11:01:15;;;;;;;10.70;6.30;;;;;;;21.95;82.28;100658.33;107493;1256;72411;-74
2023/06/26 11:03:46;;;;;;;12.10;6.70;;;;;;;21.86;82.40;100656.27;107086;1257;61372;-73
2023/06/26 11:06:15;;;;;;;11.20;7.70;;;;;;;21.90;83.04;100649.59;106949;1256;61295;-74
2023/06/26 11:08:53;;;;;;;12.10;7.70;;;;;;;22.06;82.75;100648.90;106322;1262;73025;-73
2023/06/26 11:11:53;;;;;;;12.70;7.20;;;;;;;22.32;82.23;100653.96;106543;1261;70905;-75
2023/06/26 11:14:20;;;;;;;10.40;8.20;;;;;;;22.67;80.09;100645.77;106039;1261;71616;-74
2023/06/26 11:16:48;;;;;;;12.60;7.60;;;;;;;23.09;79.40;100645.27;106051;1256;61730;-74
2023/06/26 11:19:18;;;;;;;11.90;7.30;;;;;;;23.32;77.26;100648.58;106359;1257;61347;-74
2023/06/26 11:21:45;;;;;;;12.00;7.60;;;;;;;23.51;77.06;100642.14;107523;1257;74074;-72
2023/06/26 11:24:13;;;;;;;9.20;7.20;;;;;;;23.81;75.91;100639.86;107426;1257;69943;-73